sensor_id;sensor_type;location;lat;lon;timestamp;P1;durP1;ratioP1;P2;durP2;ratioP2
61460;SDS011;47325;50.506;4.472;2022-07-25T00:03:32;7.20;;;3.60;;
61460;SDS011;47325;50.506;4.472;2022-07-25T00:09:19;4.40;;;3.60;;
61460;SDS011;47325;50.506;4.472;2022-07-25T00:15:04;4.60;;;3.20;;
61460;SDS011;47325;50.506;4.472;2022-07-25T00:20:48;5.40;;;3.50;;
61460;SDS011;47325;50.506;4.472;2022-07-25T00:26:31;3.80;;;3.40;;
61460;SDS011;47325;50.506;4.472;2022-07-25T00:32:22;5.30;;;3.50;;
61460;SDS011;47325;50.506;4.472;2022-07-25T00:38:05;5.60;;;4.00;;
61460;SDS011;47325;50.506;4.472;2022-07-25T00:43:49;4.90;;;3.50;;
61460;SDS011;47325;50.506;4.472;2022-07-25T00:49:32;7.10;;;3.70;;
61460;SDS011;47325;50.506;4.472;2022-07-25T00:55:16;5.40;;;3.50;;
61460;SDS011;47325;50.506;4.472;2022-07-25T01:00:59;5.20;;;3.70;;
61460;SDS011;47325;50.506;4.472;2022-07-25T01:06:43;3.90;;;3.20;;
61460;SDS011;47325;50.506;4.472;2022-07-25T01:12:26;5.50;;;3.40;;
61460;SDS011;47325;50.506;4.472;2022-07-25T01:18:10;3.70;;;3.30;;
61460;SDS011;47325;50.506;4.472;2022-07-25T01:23:54;5.90;;;3.60;;
61460;SDS011;47325;50.506;4.472;2022-07-25T01:29:37;5.90;;;3.50;;
61460;SDS011;47325;50.506;4.472;2022-07-25T01:35:20;5.70;;;3.80;;
61460;SDS011;47325;50.506;4.472;2022-07-25T01:41:05;4.00;;;3.50;;
61460;SDS011;47325;50.506;4.472;2022-07-25T01:46:48;4.50;;;3.50;;
61460;SDS011;47325;50.506;4.472;2022-07-25T01:52:32;6.40;;;3.60;;
61460;SDS011;47325;50.506;4.472;2022-07-25T01:58:16;5.50;;;3.60;;
61460;SDS011;47325;50.506;4.472;2022-07-25T02:04:01;6.60;;;3.80;;
61460;SDS011;47325;50.506;4.472;2022-07-25T02:09:45;5.50;;;3.50;;
61460;SDS011;47325;50.506;4.472;2022-07-25T02:15:36;4.30;;;3.50;;
61460;SDS011;47325;50.506;4.472;2022-07-25T02:21:20;4.90;;;3.40;;
61460;SDS011;47325;50.506;4.472;2022-07-25T02:27:03;4.90;;;3.70;;
61460;SDS011;47325;50.506;4.472;2022-07-25T02:32:46;5.20;;;3.50;;
61460;SDS011;47325;50.506;4.472;2022-07-25T02:45:11;4.80;;;4.00;;
61460;SDS011;47325;50.506;4.472;2022-07-25T03:03:27;5.90;;;3.70;;
61460;SDS011;47325;50.506;4.472;2022-07-25T03:09:14;5.60;;;3.80;;
61460;SDS011;47325;50.506;4.472;2022-07-25T03:14:58;5.30;;;3.50;;
61460;SDS011;47325;50.506;4.472;2022-07-25T03:20:42;5.90;;;4.10;;
61460;SDS011;47325;50.506;4.472;2022-07-25T03:26:26;7.10;;;3.90;;
61460;SDS011;47325;50.506;4.472;2022-07-25T03:32:11;5.10;;;3.90;;
61460;SDS011;47325;50.506;4.472;2022-07-25T03:37:56;7.90;;;3.90;;
61460;SDS011;47325;50.506;4.472;2022-07-25T03:43:40;7.50;;;4.00;;
61460;SDS011;47325;50.506;4.472;2022-07-25T03:49:25;5.40;;;3.80;;
61460;SDS011;47325;50.506;4.472;2022-07-25T03:55:10;5.50;;;3.90;;
61460;SDS011;47325;50.506;4.472;2022-07-25T04:00:55;6.20;;;4.00;;
61460;SDS011;47325;50.506;4.472;2022-07-25T04:06:44;6.00;;;3.90;;
61460;SDS011;47325;50.506;4.472;2022-07-25T04:12:29;5.70;;;4.30;;
61460;SDS011;47325;50.506;4.472;2022-07-25T04:18:13;5.20;;;4.00;;
61460;SDS011;47325;50.506;4.472;2022-07-25T04:24:14;6.10;;;3.90;;
61460;SDS011;47325;50.506;4.472;2022-07-25T04:29:57;6.70;;;4.40;;
61460;SDS011;47325;50.506;4.472;2022-07-25T04:35:42;6.50;;;4.10;;
61460;SDS011;47325;50.506;4.472;2022-07-25T04:41:27;5.60;;;3.80;;
61460;SDS011;47325;50.506;4.472;2022-07-25T04:47:13;6.30;;;4.10;;
61460;SDS011;47325;50.506;4.472;2022-07-25T04:52:58;8.00;;;4.60;;
61460;SDS011;47325;50.506;4.472;2022-07-25T04:58:42;8.30;;;4.80;;
61460;SDS011;47325;50.506;4.472;2022-07-25T05:04:26;6.20;;;4.30;;
61460;SDS011;47325;50.506;4.472;2022-07-25T05:10:13;6.70;;;4.40;;
61460;SDS011;47325;50.506;4.472;2022-07-25T05:15:58;6.10;;;4.20;;
61460;SDS011;47325;50.506;4.472;2022-07-25T05:21:42;6.50;;;4.00;;
61460;SDS011;47325;50.506;4.472;2022-07-25T05:27:28;6.30;;;3.50;;
61460;SDS011;47325;50.506;4.472;2022-07-25T05:33:12;5.40;;;2.70;;
61460;SDS011;47325;50.506;4.472;2022-07-25T05:38:56;5.80;;;3.10;;
61460;SDS011;47325;50.506;4.472;2022-07-25T05:44:40;4.30;;;2.90;;
61460;SDS011;47325;50.506;4.472;2022-07-25T05:50:27;4.10;;;2.90;;
61460;SDS011;47325;50.506;4.472;2022-07-25T05:56:11;5.20;;;2.40;;
61460;SDS011;47325;50.506;4.472;2022-07-25T06:01:55;4.80;;;3.00;;
61460;SDS011;47325;50.506;4.472;2022-07-25T06:07:40;4.00;;;2.80;;
61460;SDS011;47325;50.506;4.472;2022-07-25T06:13:24;2.90;;;2.30;;
61460;SDS011;47325;50.506;4.472;2022-07-25T06:19:18;4.50;;;2.30;;
61460;SDS011;47325;50.506;4.472;2022-07-25T06:25:02;7.20;;;2.50;;
61460;SDS011;47325;50.506;4.472;2022-07-25T06:30:47;5.00;;;2.20;;
61460;SDS011;47325;50.506;4.472;2022-07-25T06:36:31;6.00;;;2.30;;
61460;SDS011;47325;50.506;4.472;2022-07-25T06:42:16;4.10;;;1.90;;
61460;SDS011;47325;50.506;4.472;2022-07-25T06:48:00;5.00;;;2.00;;
61460;SDS011;47325;50.506;4.472;2022-07-25T06:53:45;6.50;;;2.00;;
61460;SDS011;47325;50.506;4.472;2022-07-25T06:59:38;7.30;;;2.20;;
61460;SDS011;47325;50.506;4.472;2022-07-25T07:05:54;7.10;;;2.20;;
61460;SDS011;47325;50.506;4.472;2022-07-25T07:12:08;6.40;;;2.00;;
61460;SDS011;47325;50.506;4.472;2022-07-25T07:18:12;3.60;;;1.70;;
61460;SDS011;47325;50.506;4.472;2022-07-25T07:24:03;4.90;;;1.50;;
61460;SDS011;47325;50.506;4.472;2022-07-25T07:30:25;6.90;;;1.70;;
61460;SDS011;47325;50.506;4.472;2022-07-25T07:36:45;4.50;;;1.50;;
61460;SDS011;47325;50.506;4.472;2022-07-25T07:42:42;5.10;;;1.50;;
61460;SDS011;47325;50.506;4.472;2022-07-25T07:48:41;3.60;;;1.30;;
61460;SDS011;47325;50.506;4.472;2022-07-25T07:54:40;5.30;;;1.50;;
61460;SDS011;47325;50.506;4.472;2022-07-25T08:00:29;5.40;;;1.70;;
61460;SDS011;47325;50.506;4.472;2022-07-25T08:06:19;4.80;;;1.60;;
61460;SDS011;47325;50.506;4.472;2022-07-25T08:12:17;3.50;;;1.70;;
61460;SDS011;47325;50.506;4.472;2022-07-25T08:18:14;5.10;;;1.90;;
61460;SDS011;47325;50.506;4.472;2022-07-25T08:24:17;4.70;;;1.60;;
61460;SDS011;47325;50.506;4.472;2022-07-25T08:30:03;3.60;;;1.30;;
61460;SDS011;47325;50.506;4.472;2022-07-25T08:35:51;3.50;;;1.40;;
61460;SDS011;47325;50.506;4.472;2022-07-25T08:41:36;3.60;;;1.50;;
61460;SDS011;47325;50.506;4.472;2022-07-25T08:47:21;3.00;;;1.30;;
61460;SDS011;47325;50.506;4.472;2022-07-25T08:53:05;3.30;;;1.40;;
61460;SDS011;47325;50.506;4.472;2022-07-25T08:59:10;4.20;;;1.30;;
61460;SDS011;47325;50.506;4.472;2022-07-25T09:04:55;2.50;;;1.40;;
61460;SDS011;47325;50.506;4.472;2022-07-25T09:10:39;4.20;;;1.50;;
61460;SDS011;47325;50.506;4.472;2022-07-25T09:16:43;3.70;;;1.40;;
61460;SDS011;47325;50.506;4.472;2022-07-25T09:22:52;3.50;;;1.40;;
61460;SDS011;47325;50.506;4.472;2022-07-25T09:28:53;3.60;;;1.50;;
61460;SDS011;47325;50.506;4.472;2022-07-25T09:34:43;3.60;;;1.30;;
61460;SDS011;47325;50.506;4.472;2022-07-25T09:40:51;3.70;;;1.50;;
61460;SDS011;47325;50.506;4.472;2022-07-25T09:46:54;4.40;;;1.60;;
61460;SDS011;47325;50.506;4.472;2022-07-25T09:52:58;4.40;;;1.40;;
61460;SDS011;47325;50.506;4.472;2022-07-25T09:58:55;3.30;;;1.50;;
61460;SDS011;47325;50.506;4.472;2022-07-25T10:04:50;4.40;;;1.40;;
61460;SDS011;47325;50.506;4.472;2022-07-25T10:11:11;4.20;;;1.60;;
61460;SDS011;47325;50.506;4.472;2022-07-25T10:17:18;4.70;;;1.70;;
61460;SDS011;47325;50.506;4.472;2022-07-25T10:23:15;4.10;;;1.60;;
61460;SDS011;47325;50.506;4.472;2022-07-25T10:29:06;2.50;;;1.50;;
61460;SDS011;47325;50.506;4.472;2022-07-25T10:35:10;4.00;;;1.60;;
61460;SDS011;47325;50.506;4.472;2022-07-25T10:41:00;4.20;;;1.90;;
61460;SDS011;47325;50.506;4.472;2022-07-25T10:46:44;4.40;;;1.50;;
61460;SDS011;47325;50.506;4.472;2022-07-25T10:52:29;4.10;;;1.90;;
61460;SDS011;47325;50.506;4.472;2022-07-25T10:58:13;3.30;;;1.80;;
61460;SDS011;47325;50.506;4.472;2022-07-25T11:04:02;5.60;;;2.20;;
61460;SDS011;47325;50.506;4.472;2022-07-25T11:09:54;5.20;;;1.70;;
61460;SDS011;47325;50.506;4.472;2022-07-25T11:15:38;7.60;;;1.90;;
61460;SDS011;47325;50.506;4.472;2022-07-25T11:21:37;5.60;;;1.90;;
61460;SDS011;47325;50.506;4.472;2022-07-25T11:27:32;6.40;;;2.00;;
61460;SDS011;47325;50.506;4.472;2022-07-25T11:33:18;6.20;;;1.90;;
61460;SDS011;47325;50.506;4.472;2022-07-25T11:39:01;8.70;;;2.20;;
61460;SDS011;47325;50.506;4.472;2022-07-25T11:44:47;8.60;;;2.30;;
61460;SDS011;47325;50.506;4.472;2022-07-25T11:50:32;4.80;;;1.90;;
61460;SDS011;47325;50.506;4.472;2022-07-25T11:56:20;7.20;;;1.90;;
61460;SDS011;47325;50.506;4.472;2022-07-25T12:02:27;5.00;;;2.00;;
61460;SDS011;47325;50.506;4.472;2022-07-25T12:08:49;5.80;;;2.00;;
61460;SDS011;47325;50.506;4.472;2022-07-25T12:15:04;6.20;;;2.40;;
61460;SDS011;47325;50.506;4.472;2022-07-25T12:21:05;5.30;;;2.10;;
61460;SDS011;47325;50.506;4.472;2022-07-25T12:27:11;5.30;;;2.00;;
61460;SDS011;47325;50.506;4.472;2022-07-25T12:33:04;6.70;;;2.00;;
61460;SDS011;47325;50.506;4.472;2022-07-25T12:38:50;4.30;;;1.90;;
61460;SDS011;47325;50.506;4.472;2022-07-25T12:44:47;6.40;;;2.10;;
61460;SDS011;47325;50.506;4.472;2022-07-25T12:50:50;7.00;;;2.50;;
61460;SDS011;47325;50.506;4.472;2022-07-25T13:02:50;4.20;;;1.80;;
61460;SDS011;47325;50.506;4.472;2022-07-25T13:08:42;5.30;;;1.90;;
61460;SDS011;47325;50.506;4.472;2022-07-25T13:15:02;4.20;;;1.70;;
61460;SDS011;47325;50.506;4.472;2022-07-25T13:21:02;6.90;;;2.90;;
61460;SDS011;47325;50.506;4.472;2022-07-25T13:26:55;5.30;;;2.70;;
61460;SDS011;47325;50.506;4.472;2022-07-25T13:33:01;9.40;;;2.60;;
61460;SDS011;47325;50.506;4.472;2022-07-25T13:39:10;7.40;;;2.30;;
61460;SDS011;47325;50.506;4.472;2022-07-25T13:45:09;8.50;;;2.30;;
61460;SDS011;47325;50.506;4.472;2022-07-25T13:51:07;6.90;;;3.30;;
61460;SDS011;47325;50.506;4.472;2022-07-25T13:56:57;6.50;;;2.20;;
61460;SDS011;47325;50.506;4.472;2022-07-25T14:03:18;10.80;;;2.30;;
61460;SDS011;47325;50.506;4.472;2022-07-25T14:09:09;4.60;;;2.00;;
61460;SDS011;47325;50.506;4.472;2022-07-25T14:14:55;7.80;;;2.20;;
61460;SDS011;47325;50.506;4.472;2022-07-25T14:20:50;6.30;;;2.10;;
61460;SDS011;47325;50.506;4.472;2022-07-25T14:26:48;5.90;;;1.60;;
61460;SDS011;47325;50.506;4.472;2022-07-25T14:32:47;4.40;;;2.20;;
61460;SDS011;47325;50.506;4.472;2022-07-25T14:38:50;8.70;;;2.70;;
61460;SDS011;47325;50.506;4.472;2022-07-25T14:44:42;6.30;;;1.50;;
61460;SDS011;47325;50.506;4.472;2022-07-25T14:50:34;4.40;;;1.80;;
61460;SDS011;47325;50.506;4.472;2022-07-25T14:56:33;6.40;;;1.60;;
61460;SDS011;47325;50.506;4.472;2022-07-25T15:02:17;5.30;;;1.60;;
61460;SDS011;47325;50.506;4.472;2022-07-25T15:08:01;5.00;;;1.70;;
61460;SDS011;47325;50.506;4.472;2022-07-25T15:13:56;5.60;;;1.40;;
61460;SDS011;47325;50.506;4.472;2022-07-25T15:19:51;6.80;;;1.50;;
61460;SDS011;47325;50.506;4.472;2022-07-25T15:25:40;4.60;;;1.40;;
61460;SDS011;47325;50.506;4.472;2022-07-25T15:32:01;6.40;;;1.30;;
61460;SDS011;47325;50.506;4.472;2022-07-25T15:38:03;5.00;;;1.30;;
61460;SDS011;47325;50.506;4.472;2022-07-25T15:44:02;4.80;;;1.50;;
61460;SDS011;47325;50.506;4.472;2022-07-25T15:50:15;4.60;;;1.10;;
61460;SDS011;47325;50.506;4.472;2022-07-25T15:56:02;4.60;;;1.10;;
61460;SDS011;47325;50.506;4.472;2022-07-25T16:01:57;3.30;;;1.00;;
61460;SDS011;47325;50.506;4.472;2022-07-25T16:08:02;5.70;;;1.20;;
61460;SDS011;47325;50.506;4.472;2022-07-25T16:13:51;5.40;;;1.30;;
61460;SDS011;47325;50.506;4.472;2022-07-25T16:19:52;6.50;;;1.20;;
61460;SDS011;47325;50.506;4.472;2022-07-25T16:25:37;3.60;;;1.20;;
61460;SDS011;47325;50.506;4.472;2022-07-25T16:31:33;3.60;;;1.30;;
61460;SDS011;47325;50.506;4.472;2022-07-25T16:37:24;3.80;;;1.00;;
61460;SDS011;47325;50.506;4.472;2022-07-25T16:43:22;2.80;;;0.90;;
61460;SDS011;47325;50.506;4.472;2022-07-25T16:49:22;3.40;;;0.80;;
61460;SDS011;47325;50.506;4.472;2022-07-25T16:55:14;5.10;;;1.10;;
61460;SDS011;47325;50.506;4.472;2022-07-25T17:07:16;3.70;;;1.00;;
61460;SDS011;47325;50.506;4.472;2022-07-25T17:13:01;2.80;;;0.90;;
61460;SDS011;47325;50.506;4.472;2022-07-25T17:18:44;4.80;;;0.90;;
61460;SDS011;47325;50.506;4.472;2022-07-25T17:24:28;1.80;;;0.80;;
61460;SDS011;47325;50.506;4.472;2022-07-25T17:30:12;3.40;;;0.90;;
61460;SDS011;47325;50.506;4.472;2022-07-25T17:35:57;3.70;;;0.90;;
61460;SDS011;47325;50.506;4.472;2022-07-25T17:41:40;2.80;;;0.80;;
61460;SDS011;47325;50.506;4.472;2022-07-25T17:47:25;4.00;;;0.90;;
61460;SDS011;47325;50.506;4.472;2022-07-25T17:53:19;3.50;;;0.90;;
61460;SDS011;47325;50.506;4.472;2022-07-25T17:59:18;2.90;;;0.90;;
61460;SDS011;47325;50.506;4.472;2022-07-25T18:05:09;7.50;;;1.00;;
61460;SDS011;47325;50.506;4.472;2022-07-25T18:10:53;4.50;;;1.00;;
61460;SDS011;47325;50.506;4.472;2022-07-25T18:16:39;7.90;;;1.40;;
61460;SDS011;47325;50.506;4.472;2022-07-25T18:22:23;5.80;;;1.10;;
61460;SDS011;47325;50.506;4.472;2022-07-25T18:28:06;5.60;;;1.00;;
61460;SDS011;47325;50.506;4.472;2022-07-25T18:33:50;5.10;;;0.90;;
61460;SDS011;47325;50.506;4.472;2022-07-25T18:39:34;3.50;;;1.00;;
61460;SDS011;47325;50.506;4.472;2022-07-25T18:45:20;3.00;;;0.80;;
61460;SDS011;47325;50.506;4.472;2022-07-25T18:51:08;5.80;;;0.90;;
61460;SDS011;47325;50.506;4.472;2022-07-25T18:56:53;5.70;;;0.80;;
61460;SDS011;47325;50.506;4.472;2022-07-25T19:02:37;4.70;;;0.80;;
61460;SDS011;47325;50.506;4.472;2022-07-25T19:08:21;4.10;;;0.90;;
61460;SDS011;47325;50.506;4.472;2022-07-25T19:14:05;2.70;;;0.70;;
61460;SDS011;47325;50.506;4.472;2022-07-25T19:19:50;1.90;;;0.60;;
61460;SDS011;47325;50.506;4.472;2022-07-25T19:25:34;1.60;;;0.70;;
61460;SDS011;47325;50.506;4.472;2022-07-25T19:31:20;3.20;;;0.80;;
61460;SDS011;47325;50.506;4.472;2022-07-25T19:37:04;3.60;;;0.70;;
61460;SDS011;47325;50.506;4.472;2022-07-25T19:42:49;2.50;;;0.70;;
61460;SDS011;47325;50.506;4.472;2022-07-25T19:48:34;3.20;;;0.70;;
61460;SDS011;47325;50.506;4.472;2022-07-25T19:54:19;1.60;;;0.50;;
61460;SDS011;47325;50.506;4.472;2022-07-25T20:00:05;1.60;;;0.50;;
61460;SDS011;47325;50.506;4.472;2022-07-25T20:05:50;1.80;;;0.60;;
61460;SDS011;47325;50.506;4.472;2022-07-25T20:11:38;2.60;;;0.70;;
61460;SDS011;47325;50.506;4.472;2022-07-25T20:17:38;1.10;;;0.60;;
61460;SDS011;47325;50.506;4.472;2022-07-25T20:23:22;1.40;;;0.60;;
61460;SDS011;47325;50.506;4.472;2022-07-25T20:29:09;1.70;;;0.60;;
61460;SDS011;47325;50.506;4.472;2022-07-25T20:34:58;0.90;;;0.50;;
61460;SDS011;47325;50.506;4.472;2022-07-25T20:40:45;0.90;;;0.60;;
61460;SDS011;47325;50.506;4.472;2022-07-25T20:46:41;2.00;;;0.60;;
61460;SDS011;47325;50.506;4.472;2022-07-25T20:52:26;2.70;;;0.80;;
61460;SDS011;47325;50.506;4.472;2022-07-25T20:58:16;1.60;;;0.80;;
61460;SDS011;47325;50.506;4.472;2022-07-25T21:04:04;2.20;;;0.70;;
61460;SDS011;47325;50.506;4.472;2022-07-25T21:09:55;2.50;;;0.80;;
61460;SDS011;47325;50.506;4.472;2022-07-25T21:15:39;2.20;;;0.70;;
61460;SDS011;47325;50.506;4.472;2022-07-25T21:21:29;2.30;;;1.00;;
61460;SDS011;47325;50.506;4.472;2022-07-25T21:27:13;2.10;;;0.70;;
61460;SDS011;47325;50.506;4.472;2022-07-25T21:33:01;2.10;;;0.80;;
61460;SDS011;47325;50.506;4.472;2022-07-25T21:38:56;2.70;;;0.90;;
61460;SDS011;47325;50.506;4.472;2022-07-25T21:44:40;2.50;;;1.00;;
61460;SDS011;47325;50.506;4.472;2022-07-25T21:50:24;2.10;;;0.80;;
61460;SDS011;47325;50.506;4.472;2022-07-25T21:56:09;2.00;;;0.90;;
61460;SDS011;47325;50.506;4.472;2022-07-25T22:01:54;2.60;;;0.80;;
61460;SDS011;47325;50.506;4.472;2022-07-25T22:07:38;3.10;;;1.00;;
61460;SDS011;47325;50.506;4.472;2022-07-25T22:13:25;2.70;;;0.80;;
61460;SDS011;47325;50.506;4.472;2022-07-25T22:19:08;3.80;;;1.00;;
61460;SDS011;47325;50.506;4.472;2022-07-25T22:24:53;2.70;;;0.90;;
61460;SDS011;47325;50.506;4.472;2022-07-25T22:30:40;2.20;;;0.90;;
61460;SDS011;47325;50.506;4.472;2022-07-25T22:36:24;2.90;;;0.90;;
61460;SDS011;47325;50.506;4.472;2022-07-25T22:42:09;2.30;;;0.90;;
61460;SDS011;47325;50.506;4.472;2022-07-25T22:47:58;2.10;;;0.80;;
61460;SDS011;47325;50.506;4.472;2022-07-25T22:53:42;3.70;;;0.90;;
61460;SDS011;47325;50.506;4.472;2022-07-25T22:59:26;3.60;;;1.30;;
61460;SDS011;47325;50.506;4.472;2022-07-25T23:05:12;2.10;;;0.80;;
61460;SDS011;47325;50.506;4.472;2022-07-25T23:10:57;3.50;;;1.00;;
61460;SDS011;47325;50.506;4.472;2022-07-25T23:16:40;2.40;;;0.90;;
61460;SDS011;47325;50.506;4.472;2022-07-25T23:22:27;1.80;;;0.80;;
61460;SDS011;47325;50.506;4.472;2022-07-25T23:28:11;4.00;;;1.00;;
61460;SDS011;47325;50.506;4.472;2022-07-25T23:33:55;3.10;;;1.00;;
61460;SDS011;47325;50.506;4.472;2022-07-25T23:39:41;3.00;;;0.90;;
61460;SDS011;47325;50.506;4.472;2022-07-25T23:45:26;3.60;;;0.90;;
61460;SDS011;47325;50.506;4.472;2022-07-25T23:51:12;2.50;;;1.00;;
61460;SDS011;47325;50.506;4.472;2022-07-25T23:56:55;4.20;;;1.10;;
